sensor_id;sensor_type;location;lat;lon;timestamp;P1;durP1;ratioP1;P2;durP2;ratioP2
64452;SDS011;50813;52.654;6.766;2023-02-22T00:01:18;43.4;;;24.1;;
64452;SDS011;50813;52.654;6.766;2023-02-22T00:02:58;36.71;;;22.4;;
64452;SDS011;50813;52.654;6.766;2023-02-22T00:06:14;40.0;;;23.0;;
64452;SDS011;50813;52.654;6.766;2023-02-22T00:07:52;38.71;;;22.8;;
64452;SDS011;50813;52.654;6.766;2023-02-22T00:09:32;43.9;;;24.1;;
64452;SDS011;50813;52.654;6.766;2023-02-22T00:11:10;44.6;;;24.1;;
64452;SDS011;50813;52.654;6.766;2023-02-22T00:14:26;38.6;;;23.4;;
64452;SDS011;50813;52.654;6.766;2023-02-22T00:16:02;49.3;;;24.3;;
64452;SDS011;50813;52.654;6.766;2023-02-22T00:17:40;44.4;;;22.6;;
64452;SDS011;50813;52.654;6.766;2023-02-22T00:20:54;38.81;;;22.5;;
64452;SDS011;50813;52.654;6.766;2023-02-22T00:22:31;40.21;;;22.4;;
64452;SDS011;50813;52.654;6.766;2023-02-22T00:24:22;39.9;;;23.1;;
64452;SDS011;50813;52.654;6.766;2023-02-22T00:25:58;46.3;;;24.7;;
64452;SDS011;50813;52.654;6.766;2023-02-22T00:29:11;43.0;;;23.3;;
64452;SDS011;50813;52.654;6.766;2023-02-22T00:30:47;38.1;;;22.7;;
64452;SDS011;50813;52.654;6.766;2023-02-22T00:32:25;41.9;;;23.8;;
64452;SDS011;50813;52.654;6.766;2023-02-22T00:34:01;38.9;;;22.5;;
64452;SDS011;50813;52.654;6.766;2023-02-22T00:37:14;46.6;;;24.7;;
64452;SDS011;50813;52.654;6.766;2023-02-22T00:38:50;41.8;;;24.5;;
64452;SDS011;50813;52.654;6.766;2023-02-22T00:40:27;41.0;;;24.4;;
64452;SDS011;50813;52.654;6.766;2023-02-22T00:43:43;39.1;;;24.5;;
64452;SDS011;50813;52.654;6.766;2023-02-22T00:45:20;41.7;;;24.8;;
64452;SDS011;50813;52.654;6.766;2023-02-22T00:46:59;45.3;;;24.5;;
64452;SDS011;50813;52.654;6.766;2023-02-22T00:50:11;34.9;;;22.9;;
64452;SDS011;50813;52.654;6.766;2023-02-22T00:51:51;43.9;;;24.9;;
64452;SDS011;50813;52.654;6.766;2023-02-22T00:53:27;41.6;;;25.1;;
64452;SDS011;50813;52.654;6.766;2023-02-22T00:55:06;43.6;;;25.3;;
64452;SDS011;50813;52.654;6.766;2023-02-22T00:58:20;53.0;;;27.4;;
64452;SDS011;50813;52.654;6.766;2023-02-22T00:59:57;43.6;;;27.6;;
64452;SDS011;50813;52.654;6.766;2023-02-22T01:01:33;41.6;;;26.1;;
64452;SDS011;50813;52.654;6.766;2023-02-22T01:04:52;53.8;;;28.8;;
64452;SDS011;50813;52.654;6.766;2023-02-22T01:06:28;49.4;;;27.6;;
64452;SDS011;50813;52.654;6.766;2023-02-22T01:08:06;50.9;;;27.4;;
64452;SDS011;50813;52.654;6.766;2023-02-22T01:09:44;45.2;;;26.2;;
64452;SDS011;50813;52.654;6.766;2023-02-22T01:12:58;40.1;;;25.5;;
64452;SDS011;50813;52.654;6.766;2023-02-22T01:14:36;51.7;;;27.0;;
64452;SDS011;50813;52.654;6.766;2023-02-22T01:16:12;43.2;;;25.5;;
64452;SDS011;50813;52.654;6.766;2023-02-22T01:19:27;51.0;;;28.5;;
64452;SDS011;50813;52.654;6.766;2023-02-22T01:21:04;50.2;;;28.0;;
64452;SDS011;50813;52.654;6.766;2023-02-22T01:22:41;44.9;;;26.0;;
64452;SDS011;50813;52.654;6.766;2023-02-22T01:24:20;56.3;;;29.6;;
64452;SDS011;50813;52.654;6.766;2023-02-22T01:27:34;47.4;;;26.5;;
64452;SDS011;50813;52.654;6.766;2023-02-22T01:29:14;47.8;;;27.0;;
64452;SDS011;50813;52.654;6.766;2023-02-22T01:30:54;55.2;;;28.3;;
64452;SDS011;50813;52.654;6.766;2023-02-22T01:34:11;47.1;;;27.6;;
64452;SDS011;50813;52.654;6.766;2023-02-22T01:35:49;49.7;;;26.6;;
64452;SDS011;50813;52.654;6.766;2023-02-22T01:37:26;50.5;;;27.2;;
64452;SDS011;50813;52.654;6.766;2023-02-22T01:39:02;42.2;;;25.5;;
64452;SDS011;50813;52.654;6.766;2023-02-22T01:42:17;40.31;;;26.5;;
64452;SDS011;50813;52.654;6.766;2023-02-22T01:43:53;39.6;;;25.7;;
64452;SDS011;50813;52.654;6.766;2023-02-22T01:45:37;47.4;;;27.0;;
64452;SDS011;50813;52.654;6.766;2023-02-22T01:47:39;45.2;;;26.2;;
64452;SDS011;50813;52.654;6.766;2023-02-22T01:50:54;40.71;;;25.2;;
64452;SDS011;50813;52.654;6.766;2023-02-22T01:52:34;35.4;;;24.2;;
64452;SDS011;50813;52.654;6.766;2023-02-22T01:54:13;43.0;;;25.6;;
64452;SDS011;50813;52.654;6.766;2023-02-22T01:55:55;46.7;;;25.1;;
64452;SDS011;50813;52.654;6.766;2023-02-22T01:59:12;40.71;;;24.2;;
64452;SDS011;50813;52.654;6.766;2023-02-22T02:00:49;40.31;;;24.7;;
64452;SDS011;50813;52.654;6.766;2023-02-22T02:02:25;39.9;;;24.1;;
64452;SDS011;50813;52.654;6.766;2023-02-22T02:04:04;38.31;;;24.3;;
64452;SDS011;50813;52.654;6.766;2023-02-22T02:07:25;43.7;;;24.9;;
64452;SDS011;50813;52.654;6.766;2023-02-22T02:09:04;52.3;;;26.9;;
64452;SDS011;50813;52.654;6.766;2023-02-22T02:10:46;46.8;;;25.9;;
64452;SDS011;50813;52.654;6.766;2023-02-22T02:12:25;44.2;;;25.2;;
64452;SDS011;50813;52.654;6.766;2023-02-22T02:15:43;43.8;;;26.2;;
64452;SDS011;50813;52.654;6.766;2023-02-22T02:17:19;47.6;;;25.5;;
64452;SDS011;50813;52.654;6.766;2023-02-22T02:18:58;43.7;;;25.9;;
64452;SDS011;50813;52.654;6.766;2023-02-22T02:22:25;37.4;;;23.3;;
64452;SDS011;50813;52.654;6.766;2023-02-22T02:24:25;44.5;;;27.1;;
64452;SDS011;50813;52.654;6.766;2023-02-22T02:27:21;45.5;;;24.5;;
64452;SDS011;50813;52.654;6.766;2023-02-22T02:32:54;43.6;;;24.5;;
64452;SDS011;50813;52.654;6.766;2023-02-22T02:34:31;38.21;;;24.1;;
64452;SDS011;50813;52.654;6.766;2023-02-22T02:36:16;51.3;;;27.2;;
64452;SDS011;50813;52.654;6.766;2023-02-22T02:38:01;38.0;;;23.9;;
64452;SDS011;50813;52.654;6.766;2023-02-22T02:39:47;40.0;;;24.4;;
64452;SDS011;50813;52.654;6.766;2023-02-22T02:43:16;40.21;;;25.3;;
64452;SDS011;50813;52.654;6.766;2023-02-22T02:45:04;37.31;;;24.1;;
64452;SDS011;50813;52.654;6.766;2023-02-22T02:46:46;42.5;;;24.5;;
64452;SDS011;50813;52.654;6.766;2023-02-22T02:48:31;49.0;;;26.8;;
64452;SDS011;50813;52.654;6.766;2023-02-22T02:50:13;43.7;;;27.0;;
64452;SDS011;50813;52.654;6.766;2023-02-22T02:53:34;40.9;;;25.3;;
64452;SDS011;50813;52.654;6.766;2023-02-22T02:55:13;43.2;;;26.3;;
64452;SDS011;50813;52.654;6.766;2023-02-22T02:56:52;40.5;;;26.2;;
64452;SDS011;50813;52.654;6.766;2023-02-22T02:58:30;49.4;;;28.0;;
64452;SDS011;50813;52.654;6.766;2023-02-22T03:02:09;48.1;;;27.0;;
64452;SDS011;50813;52.654;6.766;2023-02-22T03:04:17;39.5;;;25.9;;
64452;SDS011;50813;52.654;6.766;2023-02-22T03:06:10;50.8;;;28.6;;
64452;SDS011;50813;52.654;6.766;2023-02-22T03:08:17;46.5;;;28.1;;
64452;SDS011;50813;52.654;6.766;2023-02-22T03:10:08;52.7;;;30.8;;
64452;SDS011;50813;52.654;6.766;2023-02-22T03:12:04;48.5;;;28.8;;
64452;SDS011;50813;52.654;6.766;2023-02-22T03:13:55;55.6;;;29.6;;
64452;SDS011;50813;52.654;6.766;2023-02-22T03:15:43;51.3;;;30.5;;
64452;SDS011;50813;52.654;6.766;2023-02-22T03:17:32;54.5;;;30.2;;
64452;SDS011;50813;52.654;6.766;2023-02-22T03:19:18;50.5;;;30.8;;
64452;SDS011;50813;52.654;6.766;2023-02-22T03:22:54;56.8;;;31.7;;
64452;SDS011;50813;52.654;6.766;2023-02-22T03:24:36;60.8;;;33.71;;
64452;SDS011;50813;52.654;6.766;2023-02-22T03:26:23;55.1;;;32.3;;
64452;SDS011;50813;52.654;6.766;2023-02-22T03:28:11;53.2;;;32.1;;
64452;SDS011;50813;52.654;6.766;2023-02-22T03:29:52;51.2;;;31.1;;
64452;SDS011;50813;52.654;6.766;2023-02-22T03:33:21;67.6;;;35.0;;
64452;SDS011;50813;52.654;6.766;2023-02-22T03:35:04;65.0;;;34.81;;
64452;SDS011;50813;52.654;6.766;2023-02-22T03:36:43;57.8;;;34.31;;
64452;SDS011;50813;52.654;6.766;2023-02-22T03:38:26;59.9;;;35.6;;
64452;SDS011;50813;52.654;6.766;2023-02-22T03:41:54;64.7;;;37.4;;
64452;SDS011;50813;52.654;6.766;2023-02-22T03:43:33;66.1;;;37.4;;
64452;SDS011;50813;52.654;6.766;2023-02-22T03:45:16;64.3;;;38.1;;
64452;SDS011;50813;52.654;6.766;2023-02-22T03:46:55;67.91;;;37.5;;
64452;SDS011;50813;52.654;6.766;2023-02-22T03:48:38;62.8;;;35.81;;
64452;SDS011;50813;52.654;6.766;2023-02-22T03:52:07;66.8;;;37.5;;
64452;SDS011;50813;52.654;6.766;2023-02-22T03:53:44;73.2;;;42.0;;
64452;SDS011;50813;52.654;6.766;2023-02-22T03:55:22;69.8;;;41.3;;
64452;SDS011;50813;52.654;6.766;2023-02-22T03:56:59;79.11;;;40.0;;
64452;SDS011;50813;52.654;6.766;2023-02-22T04:00:26;75.61;;;39.9;;
64452;SDS011;50813;52.654;6.766;2023-02-22T04:02:05;78.3;;;41.8;;
64452;SDS011;50813;52.654;6.766;2023-02-22T04:03:42;75.41;;;41.0;;
64452;SDS011;50813;52.654;6.766;2023-02-22T04:05:19;78.11;;;42.2;;
64452;SDS011;50813;52.654;6.766;2023-02-22T04:08:33;71.5;;;40.21;;
64452;SDS011;50813;52.654;6.766;2023-02-22T04:10:11;76.91;;;42.5;;
64452;SDS011;50813;52.654;6.766;2023-02-22T04:11:51;81.91;;;43.3;;
64452;SDS011;50813;52.654;6.766;2023-02-22T04:15:04;80.3;;;43.3;;
64452;SDS011;50813;52.654;6.766;2023-02-22T04:16:43;81.3;;;44.7;;
64452;SDS011;50813;52.654;6.766;2023-02-22T04:18:19;87.1;;;47.0;;
64452;SDS011;50813;52.654;6.766;2023-02-22T04:19:56;84.7;;;43.9;;
64452;SDS011;50813;52.654;6.766;2023-02-22T04:23:10;85.0;;;45.8;;
64452;SDS011;50813;52.654;6.766;2023-02-22T04:24:47;83.7;;;44.7;;
64452;SDS011;50813;52.654;6.766;2023-02-22T04:26:24;89.2;;;45.4;;
64452;SDS011;50813;52.654;6.766;2023-02-22T04:29:38;87.2;;;47.8;;
64452;SDS011;50813;52.654;6.766;2023-02-22T04:31:14;86.4;;;44.7;;
64452;SDS011;50813;52.654;6.766;2023-02-22T04:32:52;83.8;;;44.6;;
64452;SDS011;50813;52.654;6.766;2023-02-22T04:36:04;84.9;;;47.0;;
64452;SDS011;50813;52.654;6.766;2023-02-22T04:37:41;85.7;;;44.9;;
64452;SDS011;50813;52.654;6.766;2023-02-22T04:39:17;88.3;;;48.7;;
64452;SDS011;50813;52.654;6.766;2023-02-22T04:40:53;84.4;;;44.5;;
64452;SDS011;50813;52.654;6.766;2023-02-22T04:44:06;87.8;;;46.5;;
64452;SDS011;50813;52.654;6.766;2023-02-22T04:45:42;80.61;;;44.6;;
64452;SDS011;50813;52.654;6.766;2023-02-22T04:47:18;93.9;;;48.7;;
64452;SDS011;50813;52.654;6.766;2023-02-22T04:50:30;94.9;;;47.4;;
64452;SDS011;50813;52.654;6.766;2023-02-22T04:52:06;95.1;;;47.3;;
64452;SDS011;50813;52.654;6.766;2023-02-22T04:53:42;93.6;;;47.4;;
64452;SDS011;50813;52.654;6.766;2023-02-22T04:56:56;97.6;;;48.2;;
64452;SDS011;50813;52.654;6.766;2023-02-22T04:58:33;99.2;;;47.6;;
64452;SDS011;50813;52.654;6.766;2023-02-22T05:00:09;109.0;;;49.8;;
64452;SDS011;50813;52.654;6.766;2023-02-22T05:01:51;103.1;;;50.4;;
64452;SDS011;50813;52.654;6.766;2023-02-22T05:05:05;97.5;;;48.7;;
64452;SDS011;50813;52.654;6.766;2023-02-22T05:06:41;103.5;;;50.0;;
64452;SDS011;50813;52.654;6.766;2023-02-22T05:08:18;104.4;;;49.0;;
64452;SDS011;50813;52.654;6.766;2023-02-22T05:11:30;107.3;;;47.0;;
64452;SDS011;50813;52.654;6.766;2023-02-22T05:13:06;110.1;;;50.8;;
64452;SDS011;50813;52.654;6.766;2023-02-22T05:14:43;99.0;;;47.8;;
64452;SDS011;50813;52.654;6.766;2023-02-22T05:17:55;109.6;;;49.7;;
64452;SDS011;50813;52.654;6.766;2023-02-22T05:19:32;105.3;;;50.8;;
64452;SDS011;50813;52.654;6.766;2023-02-22T05:21:08;112.2;;;51.8;;
64452;SDS011;50813;52.654;6.766;2023-02-22T05:22:45;110.0;;;51.9;;
64452;SDS011;50813;52.654;6.766;2023-02-22T05:25:57;109.6;;;53.3;;
64452;SDS011;50813;52.654;6.766;2023-02-22T05:27:33;121.9;;;54.7;;
64452;SDS011;50813;52.654;6.766;2023-02-22T05:29:10;117.4;;;57.1;;
64452;SDS011;50813;52.654;6.766;2023-02-22T05:32:23;125.9;;;57.4;;
64452;SDS011;50813;52.654;6.766;2023-02-22T05:33:59;112.5;;;58.3;;
64452;SDS011;50813;52.654;6.766;2023-02-22T05:35:36;111.8;;;55.3;;
64452;SDS011;50813;52.654;6.766;2023-02-22T05:38:48;107.2;;;54.9;;
64452;SDS011;50813;52.654;6.766;2023-02-22T05:40:25;109.4;;;54.3;;
64452;SDS011;50813;52.654;6.766;2023-02-22T05:42:03;109.0;;;54.6;;
64452;SDS011;50813;52.654;6.766;2023-02-22T05:43:39;110.6;;;55.0;;
64452;SDS011;50813;52.654;6.766;2023-02-22T05:46:55;108.4;;;53.4;;
64452;SDS011;50813;52.654;6.766;2023-02-22T05:48:32;109.1;;;53.5;;
64452;SDS011;50813;52.654;6.766;2023-02-22T05:50:09;100.4;;;51.6;;
64452;SDS011;50813;52.654;6.766;2023-02-22T05:53:23;105.0;;;51.7;;
64452;SDS011;50813;52.654;6.766;2023-02-22T05:54:59;107.8;;;51.4;;
64452;SDS011;50813;52.654;6.766;2023-02-22T05:56:35;115.8;;;52.9;;
64452;SDS011;50813;52.654;6.766;2023-02-22T05:59:48;108.2;;;52.2;;
64452;SDS011;50813;52.654;6.766;2023-02-22T06:01:25;103.4;;;51.3;;
64452;SDS011;50813;52.654;6.766;2023-02-22T06:03:03;106.8;;;49.4;;
64452;SDS011;50813;52.654;6.766;2023-02-22T06:04:42;120.2;;;54.6;;
64452;SDS011;50813;52.654;6.766;2023-02-22T06:07:55;112.7;;;51.2;;
64452;SDS011;50813;52.654;6.766;2023-02-22T06:09:32;103.5;;;49.9;;
64452;SDS011;50813;52.654;6.766;2023-02-22T06:11:08;108.9;;;48.2;;
64452;SDS011;50813;52.654;6.766;2023-02-22T06:16:01;104.1;;;48.4;;
64452;SDS011;50813;52.654;6.766;2023-02-22T06:17:40;111.1;;;49.1;;
64452;SDS011;50813;52.654;6.766;2023-02-22T06:19:17;102.2;;;48.7;;
64452;SDS011;50813;52.654;6.766;2023-02-22T06:22:29;105.4;;;50.4;;
64452;SDS011;50813;52.654;6.766;2023-02-22T06:24:05;106.6;;;49.8;;
64452;SDS011;50813;52.654;6.766;2023-02-22T06:25:42;110.0;;;53.4;;
64452;SDS011;50813;52.654;6.766;2023-02-22T06:28:54;104.7;;;50.7;;
64452;SDS011;50813;52.654;6.766;2023-02-22T06:32:06;108.9;;;52.1;;
64452;SDS011;50813;52.654;6.766;2023-02-22T06:35:19;98.7;;;49.6;;
64452;SDS011;50813;52.654;6.766;2023-02-22T06:36:56;107.9;;;48.2;;
64452;SDS011;50813;52.654;6.766;2023-02-22T06:38:32;110.9;;;49.1;;
64452;SDS011;50813;52.654;6.766;2023-02-22T06:40:10;105.1;;;50.2;;
64452;SDS011;50813;52.654;6.766;2023-02-22T06:43:25;105.0;;;52.0;;
64452;SDS011;50813;52.654;6.766;2023-02-22T06:45:02;108.0;;;49.9;;
64452;SDS011;50813;52.654;6.766;2023-02-22T06:46:38;107.9;;;49.3;;
64452;SDS011;50813;52.654;6.766;2023-02-22T06:49:57;110.9;;;49.7;;
64452;SDS011;50813;52.654;6.766;2023-02-22T06:51:34;119.3;;;52.4;;
64452;SDS011;50813;52.654;6.766;2023-02-22T06:53:12;108.1;;;50.1;;
64452;SDS011;50813;52.654;6.766;2023-02-22T06:54:49;113.6;;;50.9;;
64452;SDS011;50813;52.654;6.766;2023-02-22T06:58:03;106.5;;;50.8;;
64452;SDS011;50813;52.654;6.766;2023-02-22T06:59:41;110.9;;;49.0;;
64452;SDS011;50813;52.654;6.766;2023-02-22T07:01:18;117.3;;;52.5;;
64452;SDS011;50813;52.654;6.766;2023-02-22T07:04:31;110.6;;;51.3;;
64452;SDS011;50813;52.654;6.766;2023-02-22T07:06:07;119.1;;;49.8;;
64452;SDS011;50813;52.654;6.766;2023-02-22T07:07:45;116.1;;;53.6;;
64452;SDS011;50813;52.654;6.766;2023-02-22T07:11:00;116.9;;;53.2;;
64452;SDS011;50813;52.654;6.766;2023-02-22T07:12:36;117.3;;;55.2;;
64452;SDS011;50813;52.654;6.766;2023-02-22T07:14:12;118.0;;;53.6;;
64452;SDS011;50813;52.654;6.766;2023-02-22T07:15:52;114.0;;;53.4;;
64452;SDS011;50813;52.654;6.766;2023-02-22T07:19:05;114.1;;;52.3;;
64452;SDS011;50813;52.654;6.766;2023-02-22T07:20:41;120.6;;;54.7;;
64452;SDS011;50813;52.654;6.766;2023-02-22T07:22:18;119.6;;;52.3;;
64452;SDS011;50813;52.654;6.766;2023-02-22T07:25:33;118.4;;;53.4;;
64452;SDS011;50813;52.654;6.766;2023-02-22T07:27:09;118.8;;;52.2;;
64452;SDS011;50813;52.654;6.766;2023-02-22T07:28:46;123.9;;;52.0;;
64452;SDS011;50813;52.654;6.766;2023-02-22T07:30:25;120.4;;;53.7;;
64452;SDS011;50813;52.654;6.766;2023-02-22T07:33:41;124.6;;;55.8;;
64452;SDS011;50813;52.654;6.766;2023-02-22T07:35:19;125.6;;;54.1;;
64452;SDS011;50813;52.654;6.766;2023-02-22T07:36:57;124.3;;;57.1;;
64452;SDS011;50813;52.654;6.766;2023-02-22T07:40:10;128.31;;;53.8;;
64452;SDS011;50813;52.654;6.766;2023-02-22T07:41:47;127.3;;;55.9;;
64452;SDS011;50813;52.654;6.766;2023-02-22T07:43:25;144.6;;;63.2;;
64452;SDS011;50813;52.654;6.766;2023-02-22T07:45:03;137.9;;;60.3;;
64452;SDS011;50813;52.654;6.766;2023-02-22T07:48:17;149.5;;;60.6;;
64452;SDS011;50813;52.654;6.766;2023-02-22T07:49:56;152.21;;;59.0;;
64452;SDS011;50813;52.654;6.766;2023-02-22T07:51:32;147.81;;;60.2;;
64452;SDS011;50813;52.654;6.766;2023-02-22T07:54:51;141.0;;;55.1;;
64452;SDS011;50813;52.654;6.766;2023-02-22T07:56:27;146.5;;;61.0;;
64452;SDS011;50813;52.654;6.766;2023-02-22T07:58:04;136.9;;;60.1;;
64452;SDS011;50813;52.654;6.766;2023-02-22T07:59:44;146.71;;;56.7;;
64452;SDS011;50813;52.654;6.766;2023-02-22T08:02:58;133.7;;;55.3;;
64452;SDS011;50813;52.654;6.766;2023-02-22T08:04:35;132.9;;;55.6;;
64452;SDS011;50813;52.654;6.766;2023-02-22T08:06:11;137.4;;;55.9;;
64452;SDS011;50813;52.654;6.766;2023-02-22T08:09:23;141.1;;;57.4;;
64452;SDS011;50813;52.654;6.766;2023-02-22T08:11:00;149.5;;;60.5;;
64452;SDS011;50813;52.654;6.766;2023-02-22T08:12:37;142.9;;;59.1;;
64452;SDS011;50813;52.654;6.766;2023-02-22T08:15:52;140.1;;;58.6;;
64452;SDS011;50813;52.654;6.766;2023-02-22T08:17:29;145.21;;;58.3;;
64452;SDS011;50813;52.654;6.766;2023-02-22T08:19:05;144.9;;;59.0;;
64452;SDS011;50813;52.654;6.766;2023-02-22T08:20:42;144.0;;;57.8;;
64452;SDS011;50813;52.654;6.766;2023-02-22T08:23:57;150.1;;;58.3;;
64452;SDS011;50813;52.654;6.766;2023-02-22T08:25:34;139.71;;;56.8;;
64452;SDS011;50813;52.654;6.766;2023-02-22T08:27:11;137.31;;;58.4;;
64452;SDS011;50813;52.654;6.766;2023-02-22T08:30:24;143.81;;;60.3;;
64452;SDS011;50813;52.654;6.766;2023-02-22T08:32:00;142.4;;;60.9;;
64452;SDS011;50813;52.654;6.766;2023-02-22T08:33:36;131.6;;;58.6;;
64452;SDS011;50813;52.654;6.766;2023-02-22T08:35:14;133.1;;;54.3;;
64452;SDS011;50813;52.654;6.766;2023-02-22T08:38:29;139.0;;;57.8;;
64452;SDS011;50813;52.654;6.766;2023-02-22T08:40:07;128.4;;;56.4;;
64452;SDS011;50813;52.654;6.766;2023-02-22T08:41:44;134.0;;;56.6;;
64452;SDS011;50813;52.654;6.766;2023-02-22T08:44:58;140.5;;;59.6;;
64452;SDS011;50813;52.654;6.766;2023-02-22T08:46:34;139.1;;;56.5;;
64452;SDS011;50813;52.654;6.766;2023-02-22T08:48:11;130.9;;;54.9;;
64452;SDS011;50813;52.654;6.766;2023-02-22T08:51:24;128.31;;;55.1;;
64452;SDS011;50813;52.654;6.766;2023-02-22T08:53:02;145.0;;;60.1;;
64452;SDS011;50813;52.654;6.766;2023-02-22T08:54:40;137.71;;;56.4;;
64452;SDS011;50813;52.654;6.766;2023-02-22T08:56:16;148.81;;;57.7;;
64452;SDS011;50813;52.654;6.766;2023-02-22T08:59:29;148.5;;;60.5;;
64452;SDS011;50813;52.654;6.766;2023-02-22T09:01:05;150.1;;;59.5;;
64452;SDS011;50813;52.654;6.766;2023-02-22T09:02:41;155.9;;;62.0;;
64452;SDS011;50813;52.654;6.766;2023-02-22T09:05:54;167.6;;;61.4;;
64452;SDS011;50813;52.654;6.766;2023-02-22T09:07:31;161.0;;;61.8;;
64452;SDS011;50813;52.654;6.766;2023-02-22T09:09:08;157.4;;;60.6;;
64452;SDS011;50813;52.654;6.766;2023-02-22T09:10:45;150.31;;;59.3;;
64452;SDS011;50813;52.654;6.766;2023-02-22T09:13:58;151.5;;;61.0;;
64452;SDS011;50813;52.654;6.766;2023-02-22T09:15:35;142.81;;;56.0;;
64452;SDS011;50813;52.654;6.766;2023-02-22T09:17:12;140.71;;;56.6;;
64452;SDS011;50813;52.654;6.766;2023-02-22T09:20:25;150.4;;;55.0;;
64452;SDS011;50813;52.654;6.766;2023-02-22T09:22:03;148.1;;;55.6;;
64452;SDS011;50813;52.654;6.766;2023-02-22T09:23:40;137.0;;;53.1;;
64452;SDS011;50813;52.654;6.766;2023-02-22T09:26:53;137.5;;;52.7;;
64452;SDS011;50813;52.654;6.766;2023-02-22T09:28:29;152.21;;;58.1;;
64452;SDS011;50813;52.654;6.766;2023-02-22T09:30:14;193.8;;;65.91;;
64452;SDS011;50813;52.654;6.766;2023-02-22T09:31:53;183.9;;;65.3;;
64452;SDS011;50813;52.654;6.766;2023-02-22T09:35:07;195.4;;;69.41;;
64452;SDS011;50813;52.654;6.766;2023-02-22T09:36:45;171.8;;;69.2;;
64452;SDS011;50813;52.654;6.766;2023-02-22T09:38:25;171.4;;;65.0;;
64452;SDS011;50813;52.654;6.766;2023-02-22T09:40:01;135.0;;;56.3;;
64452;SDS011;50813;52.654;6.766;2023-02-22T09:43:29;111.1;;;48.3;;
64452;SDS011;50813;52.654;6.766;2023-02-22T09:45:13;110.2;;;45.6;;
64452;SDS011;50813;52.654;6.766;2023-02-22T09:46:56;114.2;;;47.3;;
64452;SDS011;50813;52.654;6.766;2023-02-22T09:48:33;122.6;;;50.1;;
64452;SDS011;50813;52.654;6.766;2023-02-22T09:51:59;123.2;;;47.6;;
64452;SDS011;50813;52.654;6.766;2023-02-22T09:53:42;122.6;;;47.2;;
64452;SDS011;50813;52.654;6.766;2023-02-22T09:55:27;116.7;;;46.0;;
64452;SDS011;50813;52.654;6.766;2023-02-22T09:57:10;117.3;;;45.3;;
64452;SDS011;50813;52.654;6.766;2023-02-22T09:58:53;112.2;;;45.4;;
64452;SDS011;50813;52.654;6.766;2023-02-22T10:02:17;102.2;;;44.3;;
64452;SDS011;50813;52.654;6.766;2023-02-22T10:04:03;116.6;;;45.6;;
64452;SDS011;50813;52.654;6.766;2023-02-22T10:05:48;108.3;;;45.1;;
64452;SDS011;50813;52.654;6.766;2023-02-22T10:07:30;103.0;;;44.3;;
64452;SDS011;50813;52.654;6.766;2023-02-22T10:10:56;106.7;;;45.4;;
64452;SDS011;50813;52.654;6.766;2023-02-22T10:12:47;100.7;;;44.2;;
64452;SDS011;50813;52.654;6.766;2023-02-22T10:14:42;103.3;;;44.3;;
64452;SDS011;50813;52.654;6.766;2023-02-22T10:16:32;108.6;;;42.9;;
64452;SDS011;50813;52.654;6.766;2023-02-22T10:18:20;97.6;;;43.4;;
64452;SDS011;50813;52.654;6.766;2023-02-22T10:20:41;82.7;;;39.31;;
64452;SDS011;50813;52.654;6.766;2023-02-22T10:22:33;88.3;;;41.2;;
64452;SDS011;50813;52.654;6.766;2023-02-22T10:24:23;88.4;;;40.9;;
64452;SDS011;50813;52.654;6.766;2023-02-22T10:26:13;93.4;;;39.9;;
64452;SDS011;50813;52.654;6.766;2023-02-22T10:29:35;85.6;;;38.81;;
64452;SDS011;50813;52.654;6.766;2023-02-22T10:31:16;82.7;;;39.71;;
64452;SDS011;50813;52.654;6.766;2023-02-22T10:33:00;84.9;;;39.31;;
64452;SDS011;50813;52.654;6.766;2023-02-22T10:34:45;89.7;;;40.1;;
64452;SDS011;50813;52.654;6.766;2023-02-22T10:38:10;81.0;;;39.9;;
64452;SDS011;50813;52.654;6.766;2023-02-22T10:39:53;86.0;;;38.81;;
64452;SDS011;50813;52.654;6.766;2023-02-22T10:41:37;84.1;;;39.31;;
64452;SDS011;50813;52.654;6.766;2023-02-22T10:43:22;92.7;;;42.2;;
64452;SDS011;50813;52.654;6.766;2023-02-22T10:44:59;84.9;;;40.0;;
64452;SDS011;50813;52.654;6.766;2023-02-22T10:48:15;91.9;;;41.4;;
64452;SDS011;50813;52.654;6.766;2023-02-22T10:49:55;83.6;;;38.4;;
64452;SDS011;50813;52.654;6.766;2023-02-22T10:51:34;80.3;;;39.1;;
64452;SDS011;50813;52.654;6.766;2023-02-22T10:54:49;82.3;;;40.31;;
64452;SDS011;50813;52.654;6.766;2023-02-22T10:56:29;86.0;;;41.2;;
64452;SDS011;50813;52.654;6.766;2023-02-22T10:58:06;90.0;;;41.1;;
64452;SDS011;50813;52.654;6.766;2023-02-22T10:59:44;94.3;;;43.5;;
64452;SDS011;50813;52.654;6.766;2023-02-22T11:03:02;90.5;;;41.4;;
64452;SDS011;50813;52.654;6.766;2023-02-22T11:04:51;90.6;;;40.31;;
64452;SDS011;50813;52.654;6.766;2023-02-22T11:06:30;88.5;;;42.0;;
64452;SDS011;50813;52.654;6.766;2023-02-22T11:08:13;76.41;;;38.0;;
64452;SDS011;50813;52.654;6.766;2023-02-22T11:09:59;79.3;;;39.31;;
64452;SDS011;50813;52.654;6.766;2023-02-22T11:13:22;69.11;;;35.1;;
64452;SDS011;50813;52.654;6.766;2023-02-22T11:15:22;74.41;;;36.5;;
64452;SDS011;50813;52.654;6.766;2023-02-22T11:17:05;74.11;;;37.0;;
64452;SDS011;50813;52.654;6.766;2023-02-22T11:18:44;72.61;;;35.81;;
64452;SDS011;50813;52.654;6.766;2023-02-22T11:22:09;71.0;;;35.5;;
64452;SDS011;50813;52.654;6.766;2023-02-22T11:23:49;67.8;;;33.5;;
64452;SDS011;50813;52.654;6.766;2023-02-22T11:25:38;67.8;;;33.5;;
64452;SDS011;50813;52.654;6.766;2023-02-22T11:27:21;68.0;;;34.31;;
64452;SDS011;50813;52.654;6.766;2023-02-22T11:29:11;58.0;;;31.3;;
64452;SDS011;50813;52.654;6.766;2023-02-22T11:30:54;61.7;;;32.71;;
64452;SDS011;50813;52.654;6.766;2023-02-22T11:34:22;69.3;;;34.9;;
64452;SDS011;50813;52.654;6.766;2023-02-22T11:36:04;67.0;;;34.21;;
64452;SDS011;50813;52.654;6.766;2023-02-22T11:37:44;71.3;;;35.21;;
64452;SDS011;50813;52.654;6.766;2023-02-22T11:39:21;63.9;;;33.8;;
64452;SDS011;50813;52.654;6.766;2023-02-22T11:42:47;68.41;;;34.5;;
64452;SDS011;50813;52.654;6.766;2023-02-22T11:44:26;65.2;;;34.4;;
64452;SDS011;50813;52.654;6.766;2023-02-22T11:46:05;67.41;;;35.0;;
64452;SDS011;50813;52.654;6.766;2023-02-22T11:47:48;61.7;;;32.1;;
64452;SDS011;50813;52.654;6.766;2023-02-22T11:51:15;70.91;;;35.1;;
64452;SDS011;50813;52.654;6.766;2023-02-22T11:53:06;65.91;;;33.9;;
64452;SDS011;50813;52.654;6.766;2023-02-22T11:55:04;65.91;;;33.9;;
64452;SDS011;50813;52.654;6.766;2023-02-22T11:56:58;61.2;;;33.71;;
64452;SDS011;50813;52.654;6.766;2023-02-22T11:58:47;68.1;;;35.71;;
64452;SDS011;50813;52.654;6.766;2023-02-22T12:00:33;64.8;;;34.5;;
64452;SDS011;50813;52.654;6.766;2023-02-22T12:02:28;67.91;;;36.5;;
64452;SDS011;50813;52.654;6.766;2023-02-22T12:04:30;71.2;;;36.0;;
64452;SDS011;50813;52.654;6.766;2023-02-22T12:08:17;69.41;;;36.71;;
64452;SDS011;50813;52.654;6.766;2023-02-22T12:10:07;61.3;;;34.4;;
64452;SDS011;50813;52.654;6.766;2023-02-22T12:11:59;62.0;;;33.0;;
64452;SDS011;50813;52.654;6.766;2023-02-22T12:13:52;60.2;;;34.5;;
64452;SDS011;50813;52.654;6.766;2023-02-22T12:15:42;62.3;;;34.4;;
64452;SDS011;50813;52.654;6.766;2023-02-22T12:17:32;60.4;;;32.9;;
64452;SDS011;50813;52.654;6.766;2023-02-22T12:19:29;57.2;;;32.5;;
64452;SDS011;50813;52.654;6.766;2023-02-22T12:21:11;60.4;;;34.1;;
64452;SDS011;50813;52.654;6.766;2023-02-22T12:24:39;60.0;;;34.9;;
64452;SDS011;50813;52.654;6.766;2023-02-22T12:26:22;60.0;;;34.9;;
64452;SDS011;50813;52.654;6.766;2023-02-22T12:28:13;56.3;;;32.5;;
64452;SDS011;50813;52.654;6.766;2023-02-22T12:29:57;53.0;;;31.6;;
64452;SDS011;50813;52.654;6.766;2023-02-22T12:31:39;54.9;;;32.4;;
64452;SDS011;50813;52.654;6.766;2023-02-22T12:35:08;53.6;;;32.21;;
64452;SDS011;50813;52.654;6.766;2023-02-22T12:36:50;55.4;;;32.3;;
64452;SDS011;50813;52.654;6.766;2023-02-22T12:38:34;54.2;;;31.4;;